• Join FlightAware (Why Join?)
  • Login
  • US Flag 
07:19AM EDT


 

Airport Tracker/Info


-or-


 

Live Flight TrackerFlight Track Log ✈ N836EA ✈ 15-Jan-2014 ✈ KDWH - KSPI

Flight Track Log - Related Links

Times and Time Zones

All times are in EST time to prevent confusion due to time zone crossing. See the N836EA flight status page for this flight to view local times or setup timezone preferences in your user account.

Time Position Orientation Groundspeed Altitude Reporting Facility
EST Latitude Longitude Course Direction KTS MPH feet Rate Location/Type
10:21AM 30.0775 -95.5564 352° North 113 130 600  Level Houston Center
10:21AM 30.1031 -95.5606 352° North 128 147 1,700 1,440 Climbing Houston Center
10:22AM 30.1414 -95.5658 353° North 144 166 3,100 960 Climbing Houston Center
10:23AM 30.1558 -95.5647 North 141 162 3,100 180 Level Houston Center
10:23AM 30.1911 -95.5358 35° Northeast 225 259 3,300 720 Climbing Houston Center
10:24AM 30.2011 -95.5217 51° Northeast 209 241 3,900 2,340 Climbing Houston Center
10:24AM 30.2272 -95.4928 44° Northeast 166 191 5,700 2,460 Climbing Houston Center
10:25AM 30.2356 -95.4831 45° Northeast 179 206 6,500 2,700 Climbing Houston Center
10:25AM 30.2519 -95.4656 43° Northeast 127 146 8,200 2,700 Climbing Houston Center
10:26AM 30.2647 -95.4497 47° Northeast 130 150 9,300 1,920 Climbing Houston Center
10:27AM 30.2914 -95.4208 43° Northeast 131 151 11,300 1,560 Climbing Houston Center
10:28AM 30.3217 -95.3833 47° Northeast 154 177 12,600 1,500 Climbing Houston Center
10:29AM 30.3556 -95.3447 45° Northeast 168 193 14,500 1,140 Climbing Houston Center
10:30AM 30.3933 -95.3017 45° Northeast 199 229 15,000 240 Climbing Houston Center
10:31AM 30.4453 -95.2411 45° Northeast 241 277 15,000  Level Houston Center
10:32AM 30.4956 -95.1844 44° Northeast 250 288 15,000  Level Houston Center
10:33AM 30.5444 -95.1281 45° Northeast 249 287 15,100 480 Climbing Houston Center
10:34AM 30.5975 -95.0664 45° Northeast 226 260 16,000 720 Climbing Houston Center
10:35AM 30.6503 -95.0353 27° Northeast 214 246 16,700 480 Climbing Houston Center
10:36AM 30.7011 -95.0044 28° Northeast 207 238 17,000 480 Climbing Houston Center
10:37AM 30.7542 -94.9706 29° Northeast 217 250 17,700 720 Climbing Houston Center
10:38AM 30.8011 -94.9419 28° Northeast 195 224 18,600 1,080 Climbing Houston Center
10:39AM 30.8431 -94.9161 28° Northeast 175 201 20,000 1,380 Climbing Houston Center
10:40AM 30.8931 -94.8853 28° Northeast 169 194 21,500 1,320 Climbing Houston Center
10:41AM 30.9361 -94.8589 28° Northeast 174 200 22,800 1,140 Climbing Houston Center
10:42AM 30.9794 -94.8347 26° Northeast 173 199 23,900 1,080 Climbing Houston Center
10:44AM 31.0239 -94.8122 23° Northeast 173 199 25,100 1,080 Climbing Houston Center
10:45AM 31.0694 -94.7886 24° Northeast 177 204 26,200 900 Climbing Houston Center
10:46AM 31.1269 -94.7592 24° Northeast 188 216 27,000 360 Climbing Houston Center
10:47AM 31.1772 -94.7325 24° Northeast 211 243 27,000  Level Houston Center
10:48AM 31.2350 -94.7022 24° Northeast 226 260 27,000  Level Houston Center
10:49AM 31.2972 -94.6706 24° Northeast 234 269 27,000  Level Houston Center
10:50AM 31.3683 -94.6336 24° Northeast 234 269 27,000  Level Houston Center
10:51AM 31.4275 -94.6019 25° Northeast 234 269 27,000  Level Houston Center
10:52AM 31.4872 -94.5708 24° Northeast 235 270 27,000  Level Houston Center
10:53AM 31.5458 -94.5400 24° Northeast 232 267 27,000  Level Houston Center
10:54AM 31.6067 -94.5086 24° Northeast 237 273 27,000  Level Houston Center
10:55AM 31.6781 -94.4706 24° Northeast 237 273 27,000  Level Houston Center
10:56AM 31.7378 -94.4394 24° Northeast 235 270 27,000  Level Houston Center
10:57AM 31.7969 -94.4081 24° Northeast 234 269 27,000  Level Houston Center
10:58AM 31.8578 -94.3764 24° Northeast 237 273 27,000  Level Houston Center
10:59AM 31.9181 -94.3447 24° Northeast 235 270 27,000  Level Fort Worth Center
11:00AM 31.9781 -94.3133 24° Northeast 236 272 27,000  Level Fort Worth Center
11:01AM 32.0378 -94.2822 24° Northeast 236 272 27,000  Level Fort Worth Center
11:02AM 32.0964 -94.2508 24° Northeast 231 266 27,000  Level Fort Worth Center
11:03AM 32.1553 -94.2194 24° Northeast 231 266 27,000  Level Fort Worth Center
11:04AM 32.2189 -94.1867 24° Northeast 233 268 27,000  Level Fort Worth Center
11:05AM 32.2772 -94.1539 25° Northeast 231 266 27,000  Level Fort Worth Center
11:06AM 32.3369 -94.1231 24° Northeast 233 268 27,000  Level Fort Worth Center
11:07AM 32.4083 -94.0853 24° Northeast 234 269 27,000  Level Fort Worth Center
11:08AM 32.4664 -94.0517 26° Northeast 234 269 27,000  Level Fort Worth Center
11:09AM 32.5258 -94.0200 24° Northeast 234 269 27,000  Level Fort Worth Center
11:10AM 32.5839 -93.9892 24° Northeast 230 265 27,000  Level Fort Worth Center
11:11AM 32.6414 -93.9575 25° Northeast 227 261 27,000  Level Fort Worth Center
11:12AM 32.6983 -93.9283 23° Northeast 224 258 27,000  Level Fort Worth Center
11:13AM 32.7664 -93.8917 24° Northeast 225 259 27,000  Level Fort Worth Center
11:14AM 32.8228 -93.8606 25° Northeast 223 257 27,000  Level Fort Worth Center
11:16AM 32.8803 -93.8300 24° Northeast 225 259 27,000  Level Fort Worth Center
11:17AM 32.9369 -93.7989 25° Northeast 225 259 27,000  Level Fort Worth Center
11:18AM 32.9936 -93.7686 24° Northeast 225 259 27,000  Level Fort Worth Center
11:19AM 33.0614 -93.7314 25° Northeast 224 258 27,000  Level Fort Worth Center
11:20AM 33.1181 -93.7003 25° Northeast 225 259 27,000  Level Fort Worth Center
11:21AM 33.1756 -93.6694 24° Northeast 227 261 27,000  Level Fort Worth Center
11:22AM 33.2319 -93.6386 25° Northeast 224 258 27,000  Level Fort Worth Center
11:23AM 33.2889 -93.6072 25° Northeast 226 260 27,000  Level Fort Worth Center
11:24AM 33.3561 -93.5703 25° Northeast 224 258 27,000  Level Fort Worth Center
11:25AM 33.4114 -93.5400 25° Northeast 220 253 27,000  Level Fort Worth Center
11:26AM 33.4683 -93.5100 24° Northeast 225 259 27,000  Level Fort Worth Center
11:27AM 33.5231 -93.4783 26° Northeast 222 255 27,000  Level Fort Worth Center
11:28AM 33.5786 -93.4483 24° Northeast 219 252 27,000  Level Fort Worth Center
11:29AM 33.6453 -93.4125 24° Northeast 218 251 27,000  Level Fort Worth Center
11:30AM 33.6997 -93.3811 26° Northeast 218 251 27,000  Level Fort Worth Center
11:31AM 33.7539 -93.3519 24° Northeast 214 246 27,000  Level Fort Worth Center
11:32AM 33.8089 -93.3217 25° Northeast 217 250 27,000  Level Fort Worth Center
11:33AM 33.8633 -93.2908 25° Northeast 217 250 27,000  Level Fort Worth Center
11:34AM 33.9175 -93.2597 25° Northeast 216 249 27,000  Level Fort Worth Center
11:35AM 33.9833 -93.2242 24° Northeast 216 249 27,000  Level Fort Worth Center
11:36AM 34.0372 -93.1936 25° Northeast 215 247 27,000  Level Fort Worth Center
11:37AM 34.0919 -93.1636 24° Northeast 215 247 27,000  Level Fort Worth Center
11:38AM 34.1458 -93.1331 25° Northeast 214 246 27,000  Level Fort Worth Center
11:39AM 34.1997 -93.1022 25° Northeast 214 246 27,000  Level Fort Worth Center
11:40AM 34.2639 -93.0658 25° Northeast 211 243 27,000  Level Fort Worth Center
11:41AM 34.3200 -93.0383 22° Northeast 216 249 27,000  Level Fort Worth Center
11:42AM 34.3739 -93.0069 26° Northeast 216 249 27,000  Level Fort Worth Center
11:43AM 34.4333 -92.9733 25° Northeast 219 252 27,000  Level Fort Worth Center
11:44AM 34.4892 -92.9411 25° Northeast 222 255 27,000  Level Fort Worth Center
11:46AM 34.5464 -92.9103 24° Northeast 225 259 27,000  Level Fort Worth Center
11:47AM 34.6347 -92.8611 25° Northeast 220 253 27,000  Level Memphis Center
11:48AM 34.6889 -92.8289 26° Northeast 218 251 27,000  Level Memphis Center
11:49AM 34.7444 -92.7989 24° Northeast 218 251 27,000  Level Memphis Center
11:50AM 34.7983 -92.7667 26° Northeast 218 251 27,000  Level Memphis Center
11:51AM 34.8536 -92.7356 25° Northeast 218 251 27,000  Level Memphis Center
11:52AM 34.9181 -92.6983 25° Northeast 215 247 27,000  Level Memphis Center
11:53AM 34.9719 -92.6683 25° Northeast 215 247 27,000  Level Memphis Center
11:54AM 35.0256 -92.6378 25° Northeast 214 246 27,000  Level Memphis Center
11:55AM 35.0800 -92.6050 26° Northeast 216 249 27,000  Level Memphis Center
11:56AM 35.1333 -92.5753 25° Northeast 214 246 27,000  Level Memphis Center
11:57AM 35.1886 -92.5442 25° Northeast 217 250 27,000  Level Memphis Center
11:58AM 35.2522 -92.5069 26° Northeast 214 246 27,000  Level Memphis Center
11:59AM 35.3072 -92.4761 25° Northeast 216 249 27,000  Level Memphis Center
12:00PM 35.3597 -92.4453 26° Northeast 213 245 27,000  Level Memphis Center
12:01PM 35.4125 -92.4150 25° Northeast 211 243 27,000  Level Memphis Center
12:03PM 35.4644 -92.3850 25° Northeast 208 239 27,000  Level Memphis Center
12:04PM 35.5269 -92.3483 26° Northeast 209 241 27,000  Level Memphis Center
12:05PM 35.5789 -92.3186 25° Northeast 207 238 27,000  Level Memphis Center
12:06PM 35.6297 -92.2886 26° Northeast 204 235 27,000  Level Memphis Center
12:07PM 35.6817 -92.2594 25° Northeast 205 236 27,000  Level Memphis Center
12:08PM 35.7328 -92.2283 26° Northeast 205 236 27,000  Level Memphis Center
12:09PM 35.7842 -92.1983 25° Northeast 206 237 27,000  Level Memphis Center
12:10PM 35.8464 -92.1625 25° Northeast 206 237 27,000  Level Memphis Center
12:11PM 35.8975 -92.1333 25° Northeast 204 235 27,000  Level Memphis Center
12:12PM 35.9472 -92.1028 26° Northeast 200 230 27,000  Level Memphis Center
12:13PM 35.9972 -92.0728 26° Northeast 198 228 27,000  Level Memphis Center
12:14PM 36.0461 -92.0439 26° Northeast 195 224 27,000  Level Memphis Center
12:15PM 36.0953 -92.0158 25° Northeast 194 223 27,000  Level Memphis Center
12:16PM 36.1517 -91.9822 26° Northeast 190 219 27,000  Level Memphis Center
12:17PM 36.1994 -91.9539 26° Northeast 190 219 27,000  Level Memphis Center
12:18PM 36.2458 -91.9275 25° Northeast 191 220 27,000  Level Memphis Center
12:19PM 36.2925 -91.8994 26° Northeast 187 215 27,000  Level Memphis Center
12:20PM 36.3400 -91.8722 25° Northeast 188 216 27,000  Level Memphis Center
12:21PM 36.3950 -91.8400 25° Northeast 184 212 27,000  Level Memphis Center
12:22PM 36.4397 -91.8128 26° Northeast 180 207 27,000  Level Memphis Center
12:23PM 36.4869 -91.7836 26° Northeast 181 208 27,000  Level Memphis Center
12:24PM 36.5331 -91.7575 24° Northeast 181 208 27,000  Level Memphis Center
12:25PM 36.5783 -91.7294 26° Northeast 181 208 27,000  Level Memphis Center
12:26PM 36.6239 -91.7033 25° Northeast 180 207 27,000  Level Memphis Center
12:27PM 36.6506 -91.6858 28° Northeast 179 206 27,000  Level Kansas City Center
12:28PM 36.7053 -91.6528 26° Northeast 181 208 27,000  Level Kansas City Center
12:29PM 36.7497 -91.6258 26° Northeast 179 206 27,000  Level Kansas City Center
12:30PM 36.7953 -91.5992 25° Northeast 179 206 27,000  Level Kansas City Center
12:31PM 36.8408 -91.5722 25° Northeast 180 207 27,000  Level Kansas City Center
12:32PM 36.8864 -91.5450 26° Northeast 181 208 27,000  Level Kansas City Center
12:33PM 36.9339 -91.5156 26° Northeast 185 213 27,000  Level Kansas City Center
12:34PM 36.9803 -91.4883 25° Northeast 186 214 27,000  Level Kansas City Center
12:35PM 37.0353 -91.4544 26° Northeast 184 212 27,000  Level Kansas City Center
12:36PM 37.0800 -91.4272 26° Northeast 181 208 27,000  Level Kansas City Center
12:37PM 37.1278 -91.3969 27° Northeast 187 215 27,000  Level Kansas City Center
12:38PM 37.1733 -91.3706 25° Northeast 182 209 27,000  Level Kansas City Center
12:39PM 37.2181 -91.3425 27° Northeast 180 207 27,000  Level Kansas City Center
12:40PM 37.2636 -91.3156 25° Northeast 180 207 27,000  Level Kansas City Center
12:41PM 37.3186 -91.2831 25° Northeast 181 208 27,000  Level Kansas City Center
12:43PM 37.3639 -91.2539 27° Northeast 181 208 27,000  Level Kansas City Center
12:44PM 37.4094 -91.2256 26° Northeast 181 208 27,000  Level Kansas City Center
12:45PM 37.4556 -91.1978 26° Northeast 183 211 27,000  Level Kansas City Center
12:46PM 37.5011 -91.1706 25° Northeast 182 209 27,000  Level Kansas City Center
12:47PM 37.5464 -91.1431 26° Northeast 181 208 27,000  Level Kansas City Center
12:48PM 37.5914 -91.1147 27° Northeast 180 207 27,000  Level Kansas City Center
12:49PM 37.6472 -91.0800 26° Northeast 184 212 27,000  Level Kansas City Center
12:50PM 37.6886 -91.0558 25° Northeast 183 211 27,000  Level Kansas City Center
12:51PM 37.7336 -91.0278 26° Northeast 181 208 27,000  Level Kansas City Center
12:52PM 37.7789 -90.9992 27° Northeast 182 209 27,000  Level Kansas City Center
12:53PM 37.8350 -90.9650 26° Northeast 184 212 27,000 -300 Level Kansas City Center
12:54PM 37.8781 -90.9378 27° Northeast 178 205 26,400 -1,020 Descending Kansas City Center
12:55PM 37.9244 -90.9094 26° Northeast 181 208 24,900 -1,200 Descending Kansas City Center
12:56PM 37.9731 -90.8783 27° Northeast 192 221 24,000 -480 Descending Kansas City Center
12:57PM 38.0181 -90.8503 26° Northeast 185 213 24,000  Level Kansas City Center
12:58PM 38.0600 -90.8242 26° Northeast 174 200 24,000  Level Kansas City Center
12:59PM 38.1106 -90.7931 26° Northeast 169 194 24,000  Level Kansas City Center
01:00PM 38.1531 -90.7661 26° Northeast 169 194 24,000  Level Kansas City Center
01:01PM 38.1953 -90.7394 26° Northeast 170 196 24,000  Level Kansas City Center
01:02PM 38.2375 -90.7136 26° Northeast 169 194 24,000  Level Kansas City Center
01:03PM 38.2792 -90.6875 26° Northeast 167 192 24,000  Level Kansas City Center
01:04PM 38.3208 -90.6617 26° Northeast 167 192 24,000  Level Kansas City Center
01:05PM 38.3708 -90.6297 27° Northeast 168 193 24,000  Level Kansas City Center
01:06PM 38.4119 -90.6036 26° Northeast 168 193 24,000 -480 Level Kansas City Center
01:07PM 38.4553 -90.5764 26° Northeast 170 196 23,100 -1,200 Descending Kansas City Center
01:08PM 38.5058 -90.5436 27° Northeast 191 220 21,600 -1,440 Descending Kansas City Center
01:09PM 38.5603 -90.5064 28° Northeast 205 236 20,200 -840 Descending Kansas City Center
01:10PM 38.6269 -90.4672 25° Northeast 215 247 19,900 -900 Descending Kansas City Center
01:11PM 38.6811 -90.4331 26° Northeast 215 247 18,400 -1,380 Descending Kansas City Center
01:12PM 38.7411 -90.3947 26° Northeast 226 260 17,100 -1,200 Descending Kansas City Center
01:14PM 38.8036 -90.3542 27° Northeast 241 277 16,000 -540 Descending Kansas City Center
01:15PM 38.8642 -90.3158 26° Northeast 243 280 16,000 -180 Level Kansas City Center
01:16PM 38.9186 -90.2811 26° Northeast 226 260 15,700 -960 Descending Kansas City Center
01:17PM 38.9850 -90.2383 27° Northeast 243 280 14,100 -1,500 Descending Kansas City Center
01:18PM 39.0511 -90.1958 27° Northeast 259 298 12,600 -1,500 Descending Kansas City Center
01:19PM 39.1169 -90.1528 27° Northeast 265 305 11,100 -780 Descending Kansas City Center
01:20PM 39.1936 -90.1028 27° Northeast 259 298 11,000 -60 Descending Kansas City Center
01:21PM 39.2528 -90.0656 26° Northeast 243 280 11,000  Level Kansas City Center
01:22PM 39.3108 -90.0269 27° Northeast 237 273 11,000  Level Kansas City Center
01:23PM 39.3597 -89.9775 38° Northeast 225 259 11,000 -660 Level Kansas City Center
01:24PM 39.4078 -89.9181 44° Northeast 234 269 9,700 -1,380 Descending Kansas City Center
01:25PM 39.4617 -89.8575 41° Northeast 252 290 8,200 -1,620 Descending Kansas City Center
01:26PM 39.5258 -89.7839 41° Northeast 256 295 6,400 -1,620 Descending Kansas City Center
01:27PM 39.5778 -89.7222 42° Northeast 255 293 4,900 -1,440 Descending Kansas City Center
01:28PM 39.6306 -89.6622 41° Northeast 253 291 3,400 -960 Descending Kansas City Center
01:29PM 39.6739 -89.6114 42° Northeast 217 250 3,000 -240 Descending Kansas City Center
01:30PM 39.7111 -89.5681 42° Northeast 199 229 3,000  Level Kansas City Center
01:31PM 39.7642 -89.5433 20° North 199 229 3,000 -360 Level Kansas City Center
01:32PM 39.7917 -89.5867 310° West 171 197 2,300 -720 Descending Kansas City Center
01:33PM 39.8136 -89.6269 305° West 151 174 1,600 -480 Descending Kansas City Center
01:34PM 39.8339 -89.6628 306° West 147 169 1,400 -240 Descending Kansas City Center
01:36PM 39.8333 -89.6667 330° Northwest  Level FlightAware Approximate